sensor_id;sensor_type;location;lat;lon;timestamp;temperature;humidity
1702;DHT22;848;48.354;10.064;2023-01-15T00:01:27;9.50;99.90
1702;DHT22;848;48.354;10.064;2023-01-15T00:03:57;9.60;99.90
1702;DHT22;848;48.354;10.064;2023-01-15T00:06:25;9.60;99.90
1702;DHT22;848;48.354;10.064;2023-01-15T00:08:53;9.60;99.90
1702;DHT22;848;48.354;10.064;2023-01-15T00:11:21;9.50;99.90
1702;DHT22;848;48.354;10.064;2023-01-15T00:13:48;9.60;99.90
1702;DHT22;848;48.354;10.064;2023-01-15T00:16:16;9.60;99.90
1702;DHT22;848;48.354;10.064;2023-01-15T00:18:48;9.60;99.90
1702;DHT22;848;48.354;10.064;2023-01-15T00:21:17;9.60;99.90
1702;DHT22;848;48.354;10.064;2023-01-15T00:23:44;9.60;99.90
1702;DHT22;848;48.354;10.064;2023-01-15T00:26:30;9.60;99.90
1702;DHT22;848;48.354;10.064;2023-01-15T00:29:15;9.60;99.90
1702;DHT22;848;48.354;10.064;2023-01-15T00:31:44;9.70;99.90
1702;DHT22;848;48.354;10.064;2023-01-15T00:34:16;9.70;99.90
1702;DHT22;848;48.354;10.064;2023-01-15T00:36:44;9.70;99.90
1702;DHT22;848;48.354;10.064;2023-01-15T00:39:11;9.80;99.90
1702;DHT22;848;48.354;10.064;2023-01-15T00:41:38;9.80;99.90
1702;DHT22;848;48.354;10.064;2023-01-15T00:44:05;9.80;99.90
1702;DHT22;848;48.354;10.064;2023-01-15T00:46:32;9.70;99.90
1702;DHT22;848;48.354;10.064;2023-01-15T00:48:59;9.80;99.90
1702;DHT22;848;48.354;10.064;2023-01-15T00:51:26;9.80;99.90
1702;DHT22;848;48.354;10.064;2023-01-15T00:53:54;9.80;99.90
1702;DHT22;848;48.354;10.064;2023-01-15T00:56:21;9.80;99.90
1702;DHT22;848;48.354;10.064;2023-01-15T00:58:48;9.80;99.90
1702;DHT22;848;48.354;10.064;2023-01-15T01:01:15;9.80;99.90
1702;DHT22;848;48.354;10.064;2023-01-15T01:03:42;9.90;99.90
1702;DHT22;848;48.354;10.064;2023-01-15T01:06:13;9.90;99.90
1702;DHT22;848;48.354;10.064;2023-01-15T01:08:41;9.90;99.90
1702;DHT22;848;48.354;10.064;2023-01-15T01:11:11;9.90;99.90
1702;DHT22;848;48.354;10.064;2023-01-15T01:13:39;10.00;99.90
1702;DHT22;848;48.354;10.064;2023-01-15T01:16:21;10.00;99.90
1702;DHT22;848;48.354;10.064;2023-01-15T01:18:48;10.00;99.90
1702;DHT22;848;48.354;10.064;2023-01-15T01:21:15;10.00;99.90
1702;DHT22;848;48.354;10.064;2023-01-15T01:23:42;10.00;99.90
1702;DHT22;848;48.354;10.064;2023-01-15T01:26:10;10.00;99.90
1702;DHT22;848;48.354;10.064;2023-01-15T01:28:38;10.00;99.90
1702;DHT22;848;48.354;10.064;2023-01-15T01:31:06;10.00;99.90
1702;DHT22;848;48.354;10.064;2023-01-15T01:33:33;10.10;99.90
1702;DHT22;848;48.354;10.064;2023-01-15T01:36:00;10.10;99.90
1702;DHT22;848;48.354;10.064;2023-01-15T01:38:27;10.10;99.90
1702;DHT22;848;48.354;10.064;2023-01-15T01:40:54;10.10;99.90
1702;DHT22;848;48.354;10.064;2023-01-15T01:43:24;10.10;99.90
1702;DHT22;848;48.354;10.064;2023-01-15T01:45:51;10.20;99.90
1702;DHT22;848;48.354;10.064;2023-01-15T01:48:31;10.20;99.90
1702;DHT22;848;48.354;10.064;2023-01-15T01:51:01;10.20;99.90
1702;DHT22;848;48.354;10.064;2023-01-15T01:53:31;10.20;99.90
1702;DHT22;848;48.354;10.064;2023-01-15T01:55:58;10.10;99.90
1702;DHT22;848;48.354;10.064;2023-01-15T01:58:29;10.10;99.90
1702;DHT22;848;48.354;10.064;2023-01-15T02:00:59;10.10;99.90
1702;DHT22;848;48.354;10.064;2023-01-15T02:03:30;10.10;99.90
1702;DHT22;848;48.354;10.064;2023-01-15T02:06:00;10.10;99.90
1702;DHT22;848;48.354;10.064;2023-01-15T02:08:29;10.10;99.90
1702;DHT22;848;48.354;10.064;2023-01-15T02:10:57;10.10;99.90
1702;DHT22;848;48.354;10.064;2023-01-15T02:13:29;10.00;99.90
1702;DHT22;848;48.354;10.064;2023-01-15T02:16:01;10.00;99.90
1702;DHT22;848;48.354;10.064;2023-01-15T02:18:33;10.00;99.90
1702;DHT22;848;48.354;10.064;2023-01-15T02:21:06;9.90;99.90
1702;DHT22;848;48.354;10.064;2023-01-15T02:23:57;9.90;99.90
1702;DHT22;848;48.354;10.064;2023-01-15T02:26:58;9.90;99.90
1702;DHT22;848;48.354;10.064;2023-01-15T02:29:30;9.90;99.90
1702;DHT22;848;48.354;10.064;2023-01-15T02:32:00;9.90;99.90
1702;DHT22;848;48.354;10.064;2023-01-15T02:34:32;9.90;99.90
1702;DHT22;848;48.354;10.064;2023-01-15T02:37:03;9.80;99.90
1702;DHT22;848;48.354;10.064;2023-01-15T02:39:32;9.90;99.90
1702;DHT22;848;48.354;10.064;2023-01-15T02:42:04;9.90;99.90
1702;DHT22;848;48.354;10.064;2023-01-15T02:44:36;10.00;99.90
1702;DHT22;848;48.354;10.064;2023-01-15T02:47:04;10.10;99.90
1702;DHT22;848;48.354;10.064;2023-01-15T02:49:31;9.90;99.90
1702;DHT22;848;48.354;10.064;2023-01-15T02:52:03;9.90;99.90
1702;DHT22;848;48.354;10.064;2023-01-15T02:54:33;9.90;99.90
1702;DHT22;848;48.354;10.064;2023-01-15T02:57:04;9.90;99.90
1702;DHT22;848;48.354;10.064;2023-01-15T02:59:34;9.90;99.90
1702;DHT22;848;48.354;10.064;2023-01-15T03:02:05;9.90;99.90
1702;DHT22;848;48.354;10.064;2023-01-15T03:04:36;10.00;99.90
1702;DHT22;848;48.354;10.064;2023-01-15T03:07:10;10.00;99.90
1702;DHT22;848;48.354;10.064;2023-01-15T03:09:38;9.90;99.90
1702;DHT22;848;48.354;10.064;2023-01-15T03:12:14;9.90;99.90
1702;DHT22;848;48.354;10.064;2023-01-15T03:14:48;10.00;99.90
1702;DHT22;848;48.354;10.064;2023-01-15T03:17:19;10.00;99.90
1702;DHT22;848;48.354;10.064;2023-01-15T03:19:52;10.00;99.90
1702;DHT22;848;48.354;10.064;2023-01-15T03:22:26;10.00;99.90
1702;DHT22;848;48.354;10.064;2023-01-15T03:24:56;10.00;99.90
1702;DHT22;848;48.354;10.064;2023-01-15T03:27:26;10.00;99.90
1702;DHT22;848;48.354;10.064;2023-01-15T03:29:58;10.00;99.90
1702;DHT22;848;48.354;10.064;2023-01-15T03:32:27;10.00;99.90
1702;DHT22;848;48.354;10.064;2023-01-15T03:34:56;10.00;99.90
1702;DHT22;848;48.354;10.064;2023-01-15T03:37:24;10.00;99.90
1702;DHT22;848;48.354;10.064;2023-01-15T03:39:52;10.00;99.90
1702;DHT22;848;48.354;10.064;2023-01-15T03:45:14;10.00;99.90
1702;DHT22;848;48.354;10.064;2023-01-15T03:47:49;10.00;99.90
1702;DHT22;848;48.354;10.064;2023-01-15T03:50:25;9.90;99.90
1702;DHT22;848;48.354;10.064;2023-01-15T03:52:59;10.00;99.90
1702;DHT22;848;48.354;10.064;2023-01-15T03:55:37;9.90;99.90
1702;DHT22;848;48.354;10.064;2023-01-15T03:58:09;10.00;99.90
1702;DHT22;848;48.354;10.064;2023-01-15T04:00:43;10.10;99.90
1702;DHT22;848;48.354;10.064;2023-01-15T04:03:13;10.00;99.90
1702;DHT22;848;48.354;10.064;2023-01-15T04:05:41;10.00;99.90
1702;DHT22;848;48.354;10.064;2023-01-15T04:08:11;10.00;99.90
1702;DHT22;848;48.354;10.064;2023-01-15T04:10:52;10.00;99.90
1702;DHT22;848;48.354;10.064;2023-01-15T04:13:19;10.00;99.90
1702;DHT22;848;48.354;10.064;2023-01-15T04:15:47;10.00;99.90
1702;DHT22;848;48.354;10.064;2023-01-15T04:18:15;10.00;99.90
1702;DHT22;848;48.354;10.064;2023-01-15T04:20:42;10.00;99.90
1702;DHT22;848;48.354;10.064;2023-01-15T04:23:09;10.00;99.90
1702;DHT22;848;48.354;10.064;2023-01-15T04:25:36;10.00;99.90
1702;DHT22;848;48.354;10.064;2023-01-15T04:28:04;10.00;99.90
1702;DHT22;848;48.354;10.064;2023-01-15T04:30:31;10.00;99.90
1702;DHT22;848;48.354;10.064;2023-01-15T04:32:59;10.00;99.90
1702;DHT22;848;48.354;10.064;2023-01-15T04:35:26;10.00;99.90
1702;DHT22;848;48.354;10.064;2023-01-15T04:37:54;10.00;99.90
1702;DHT22;848;48.354;10.064;2023-01-15T04:40:21;9.90;99.90
1702;DHT22;848;48.354;10.064;2023-01-15T04:43:06;9.90;99.90
1702;DHT22;848;48.354;10.064;2023-01-15T04:45:51;9.90;99.90
1702;DHT22;848;48.354;10.064;2023-01-15T04:48:19;9.90;99.90
1702;DHT22;848;48.354;10.064;2023-01-15T04:50:46;9.90;99.90
1702;DHT22;848;48.354;10.064;2023-01-15T04:53:13;9.90;99.90
1702;DHT22;848;48.354;10.064;2023-01-15T04:55:40;9.90;99.90
1702;DHT22;848;48.354;10.064;2023-01-15T04:58:07;9.90;99.90
1702;DHT22;848;48.354;10.064;2023-01-15T05:00:34;9.90;99.90
1702;DHT22;848;48.354;10.064;2023-01-15T05:03:01;9.90;99.90
1702;DHT22;848;48.354;10.064;2023-01-15T05:05:29;9.90;99.90
1702;DHT22;848;48.354;10.064;2023-01-15T05:07:57;9.80;99.90
1702;DHT22;848;48.354;10.064;2023-01-15T05:10:24;9.80;99.90
1702;DHT22;848;48.354;10.064;2023-01-15T05:12:51;9.90;99.90
1702;DHT22;848;48.354;10.064;2023-01-15T05:15:18;9.90;99.90
1702;DHT22;848;48.354;10.064;2023-01-15T05:17:45;9.90;99.90
1702;DHT22;848;48.354;10.064;2023-01-15T05:20:12;9.90;99.90
1702;DHT22;848;48.354;10.064;2023-01-15T05:22:40;9.90;99.90
1702;DHT22;848;48.354;10.064;2023-01-15T05:25:08;9.80;99.90
1702;DHT22;848;48.354;10.064;2023-01-15T05:27:34;9.80;99.90
1702;DHT22;848;48.354;10.064;2023-01-15T05:30:02;9.80;99.90
1702;DHT22;848;48.354;10.064;2023-01-15T05:32:29;9.90;99.90
1702;DHT22;848;48.354;10.064;2023-01-15T05:34:56;9.90;99.90
1702;DHT22;848;48.354;10.064;2023-01-15T05:37:23;9.90;99.90
1702;DHT22;848;48.354;10.064;2023-01-15T05:39:51;9.90;99.90
1702;DHT22;848;48.354;10.064;2023-01-15T05:42:18;10.00;99.90
1702;DHT22;848;48.354;10.064;2023-01-15T05:44:45;10.00;99.90
1702;DHT22;848;48.354;10.064;2023-01-15T05:47:12;10.10;99.90
1702;DHT22;848;48.354;10.064;2023-01-15T05:49:39;10.00;99.90
1702;DHT22;848;48.354;10.064;2023-01-15T05:52:06;10.10;99.90
1702;DHT22;848;48.354;10.064;2023-01-15T05:54:35;10.10;99.90
1702;DHT22;848;48.354;10.064;2023-01-15T05:57:03;10.10;99.90
1702;DHT22;848;48.354;10.064;2023-01-15T05:59:31;10.10;99.90
1702;DHT22;848;48.354;10.064;2023-01-15T06:01:58;10.20;99.90
1702;DHT22;848;48.354;10.064;2023-01-15T06:04:25;10.30;99.90
1702;DHT22;848;48.354;10.064;2023-01-15T06:06:53;10.30;99.90
1702;DHT22;848;48.354;10.064;2023-01-15T06:09:20;10.30;99.90
1702;DHT22;848;48.354;10.064;2023-01-15T06:11:48;10.30;99.90
1702;DHT22;848;48.354;10.064;2023-01-15T06:14:16;10.30;99.90
1702;DHT22;848;48.354;10.064;2023-01-15T06:16:44;10.40;99.90
1702;DHT22;848;48.354;10.064;2023-01-15T06:19:12;10.40;99.90
1702;DHT22;848;48.354;10.064;2023-01-15T06:21:39;10.40;99.90
1702;DHT22;848;48.354;10.064;2023-01-15T06:24:07;10.50;99.90
1702;DHT22;848;48.354;10.064;2023-01-15T06:26:34;10.40;99.90
1702;DHT22;848;48.354;10.064;2023-01-15T06:29:01;10.40;99.90
1702;DHT22;848;48.354;10.064;2023-01-15T06:31:29;10.40;99.90
1702;DHT22;848;48.354;10.064;2023-01-15T06:33:57;10.40;99.90
1702;DHT22;848;48.354;10.064;2023-01-15T06:36:25;10.40;99.90
1702;DHT22;848;48.354;10.064;2023-01-15T06:38:52;10.40;99.90
1702;DHT22;848;48.354;10.064;2023-01-15T06:41:21;10.40;99.90
1702;DHT22;848;48.354;10.064;2023-01-15T06:44:10;10.50;99.90
1702;DHT22;848;48.354;10.064;2023-01-15T06:46:56;10.50;99.90
1702;DHT22;848;48.354;10.064;2023-01-15T06:49:40;10.50;99.90
1702;DHT22;848;48.354;10.064;2023-01-15T06:52:08;10.50;99.90
1702;DHT22;848;48.354;10.064;2023-01-15T06:54:34;10.40;99.90
1702;DHT22;848;48.354;10.064;2023-01-15T06:57:01;10.40;99.90
1702;DHT22;848;48.354;10.064;2023-01-15T06:59:28;10.40;99.90
1702;DHT22;848;48.354;10.064;2023-01-15T07:01:57;10.40;99.90
1702;DHT22;848;48.354;10.064;2023-01-15T07:04:24;10.30;99.90
1702;DHT22;848;48.354;10.064;2023-01-15T07:06:51;10.30;99.90
1702;DHT22;848;48.354;10.064;2023-01-15T07:09:18;10.20;99.90
1702;DHT22;848;48.354;10.064;2023-01-15T07:11:44;10.20;99.90
1702;DHT22;848;48.354;10.064;2023-01-15T07:14:18;10.20;99.90
1702;DHT22;848;48.354;10.064;2023-01-15T07:16:45;10.20;99.90
1702;DHT22;848;48.354;10.064;2023-01-15T07:19:14;10.20;99.90
1702;DHT22;848;48.354;10.064;2023-01-15T07:21:41;10.20;99.90
1702;DHT22;848;48.354;10.064;2023-01-15T07:24:09;10.10;99.90
1702;DHT22;848;48.354;10.064;2023-01-15T07:26:36;10.10;99.90
1702;DHT22;848;48.354;10.064;2023-01-15T07:29:03;10.00;99.90
1702;DHT22;848;48.354;10.064;2023-01-15T07:31:30;10.00;99.90
1702;DHT22;848;48.354;10.064;2023-01-15T07:33:57;10.00;99.90
1702;DHT22;848;48.354;10.064;2023-01-15T07:36:25;10.00;99.90
1702;DHT22;848;48.354;10.064;2023-01-15T07:38:52;9.90;99.90
1702;DHT22;848;48.354;10.064;2023-01-15T07:41:20;9.90;99.90
1702;DHT22;848;48.354;10.064;2023-01-15T07:44:04;10.00;99.90
1702;DHT22;848;48.354;10.064;2023-01-15T07:46:49;9.90;99.90
1702;DHT22;848;48.354;10.064;2023-01-15T07:49:33;9.80;99.90
1702;DHT22;848;48.354;10.064;2023-01-15T07:52:15;9.80;99.90
1702;DHT22;848;48.354;10.064;2023-01-15T07:54:43;9.80;99.90
1702;DHT22;848;48.354;10.064;2023-01-15T07:57:11;9.90;99.90
1702;DHT22;848;48.354;10.064;2023-01-15T07:59:39;9.90;99.90
1702;DHT22;848;48.354;10.064;2023-01-15T08:02:06;9.80;99.90
1702;DHT22;848;48.354;10.064;2023-01-15T08:04:33;9.70;99.90
1702;DHT22;848;48.354;10.064;2023-01-15T08:07:00;9.70;99.90
1702;DHT22;848;48.354;10.064;2023-01-15T08:09:28;9.60;99.90
1702;DHT22;848;48.354;10.064;2023-01-15T08:11:58;9.60;99.90
1702;DHT22;848;48.354;10.064;2023-01-15T08:14:43;9.60;99.90
1702;DHT22;848;48.354;10.064;2023-01-15T08:17:28;9.60;99.90
1702;DHT22;848;48.354;10.064;2023-01-15T08:19:54;9.60;99.90
1702;DHT22;848;48.354;10.064;2023-01-15T08:22:21;9.60;99.90
1702;DHT22;848;48.354;10.064;2023-01-15T08:24:50;9.60;99.90
1702;DHT22;848;48.354;10.064;2023-01-15T08:27:17;9.60;99.90
1702;DHT22;848;48.354;10.064;2023-01-15T08:29:43;9.50;99.90
1702;DHT22;848;48.354;10.064;2023-01-15T08:32:10;9.30;99.90
1702;DHT22;848;48.354;10.064;2023-01-15T08:34:37;8.70;99.90
1702;DHT22;848;48.354;10.064;2023-01-15T08:37:05;8.10;99.90
1702;DHT22;848;48.354;10.064;2023-01-15T08:39:32;7.60;99.90
1702;DHT22;848;48.354;10.064;2023-01-15T08:42:00;7.50;99.90
1702;DHT22;848;48.354;10.064;2023-01-15T08:44:27;7.50;99.90
1702;DHT22;848;48.354;10.064;2023-01-15T08:46:54;7.40;99.90
1702;DHT22;848;48.354;10.064;2023-01-15T08:49:21;7.30;99.90
1702;DHT22;848;48.354;10.064;2023-01-15T08:51:48;7.20;99.90
1702;DHT22;848;48.354;10.064;2023-01-15T08:54:16;7.00;99.90
1702;DHT22;848;48.354;10.064;2023-01-15T08:56:44;7.00;99.90
1702;DHT22;848;48.354;10.064;2023-01-15T08:59:12;6.90;99.90
1702;DHT22;848;48.354;10.064;2023-01-15T09:01:39;6.70;99.90
1702;DHT22;848;48.354;10.064;2023-01-15T09:04:06;6.70;99.90
1702;DHT22;848;48.354;10.064;2023-01-15T09:06:33;6.50;99.90
1702;DHT22;848;48.354;10.064;2023-01-15T09:09:00;6.50;99.90
1702;DHT22;848;48.354;10.064;2023-01-15T09:11:27;6.60;99.90
1702;DHT22;848;48.354;10.064;2023-01-15T09:13:54;6.50;99.90
1702;DHT22;848;48.354;10.064;2023-01-15T09:16:22;6.50;99.90
1702;DHT22;848;48.354;10.064;2023-01-15T09:18:51;6.40;99.90
1702;DHT22;848;48.354;10.064;2023-01-15T09:21:18;6.50;99.90
1702;DHT22;848;48.354;10.064;2023-01-15T09:23:44;6.60;99.90
1702;DHT22;848;48.354;10.064;2023-01-15T09:26:25;6.60;99.90
1702;DHT22;848;48.354;10.064;2023-01-15T09:28:52;6.60;99.90
1702;DHT22;848;48.354;10.064;2023-01-15T09:31:19;6.60;99.90
1702;DHT22;848;48.354;10.064;2023-01-15T09:33:47;6.60;99.90
1702;DHT22;848;48.354;10.064;2023-01-15T09:36:15;6.60;99.90
1702;DHT22;848;48.354;10.064;2023-01-15T09:38:42;6.60;99.90
1702;DHT22;848;48.354;10.064;2023-01-15T09:41:11;6.50;99.90
1702;DHT22;848;48.354;10.064;2023-01-15T09:44:11;6.50;99.90
1702;DHT22;848;48.354;10.064;2023-01-15T09:46:48;6.60;99.90
1702;DHT22;848;48.354;10.064;2023-01-15T09:49:27;6.50;99.90
1702;DHT22;848;48.354;10.064;2023-01-15T09:52:06;6.50;99.90
1702;DHT22;848;48.354;10.064;2023-01-15T09:54:47;6.50;99.90
1702;DHT22;848;48.354;10.064;2023-01-15T09:57:18;6.50;99.90
1702;DHT22;848;48.354;10.064;2023-01-15T09:59:48;6.50;99.90
1702;DHT22;848;48.354;10.064;2023-01-15T10:02:21;6.50;99.90
1702;DHT22;848;48.354;10.064;2023-01-15T10:04:55;6.30;99.90
1702;DHT22;848;48.354;10.064;2023-01-15T10:07:29;6.30;99.90
1702;DHT22;848;48.354;10.064;2023-01-15T10:09:59;6.40;99.90
1702;DHT22;848;48.354;10.064;2023-01-15T10:12:29;6.30;99.90
1702;DHT22;848;48.354;10.064;2023-01-15T10:15:03;6.30;99.90
1702;DHT22;848;48.354;10.064;2023-01-15T10:17:37;6.30;99.90
1702;DHT22;848;48.354;10.064;2023-01-15T10:20:12;6.30;99.90
1702;DHT22;848;48.354;10.064;2023-01-15T10:25:33;6.30;99.90
1702;DHT22;848;48.354;10.064;2023-01-15T10:28:13;6.30;99.90
1702;DHT22;848;48.354;10.064;2023-01-15T10:30:46;6.30;99.90
1702;DHT22;848;48.354;10.064;2023-01-15T10:33:38;6.30;99.90
1702;DHT22;848;48.354;10.064;2023-01-15T10:36:12;6.40;99.90
1702;DHT22;848;48.354;10.064;2023-01-15T10:38:48;6.40;99.90
1702;DHT22;848;48.354;10.064;2023-01-15T10:41:34;6.50;99.90
1702;DHT22;848;48.354;10.064;2023-01-15T10:44:09;6.50;99.90
1702;DHT22;848;48.354;10.064;2023-01-15T10:46:39;6.50;99.90
1702;DHT22;848;48.354;10.064;2023-01-15T10:49:12;6.50;99.90
1702;DHT22;848;48.354;10.064;2023-01-15T10:51:43;6.40;99.90
1702;DHT22;848;48.354;10.064;2023-01-15T10:54:19;6.50;99.90
1702;DHT22;848;48.354;10.064;2023-01-15T10:56:52;6.50;99.90
1702;DHT22;848;48.354;10.064;2023-01-15T10:59:32;6.50;99.90
1702;DHT22;848;48.354;10.064;2023-01-15T11:02:00;6.60;99.90
1702;DHT22;848;48.354;10.064;2023-01-15T11:04:31;6.50;99.90
1702;DHT22;848;48.354;10.064;2023-01-15T11:06:59;6.50;99.90
1702;DHT22;848;48.354;10.064;2023-01-15T11:09:27;6.60;99.90
1702;DHT22;848;48.354;10.064;2023-01-15T11:12:11;6.60;99.90
1702;DHT22;848;48.354;10.064;2023-01-15T11:14:55;6.60;99.90
1702;DHT22;848;48.354;10.064;2023-01-15T11:17:42;6.70;99.90
1702;DHT22;848;48.354;10.064;2023-01-15T11:20:28;6.70;99.90
1702;DHT22;848;48.354;10.064;2023-01-15T11:23:05;6.70;99.90
1702;DHT22;848;48.354;10.064;2023-01-15T11:25:32;6.60;99.90
1702;DHT22;848;48.354;10.064;2023-01-15T11:28:01;6.70;99.90
1702;DHT22;848;48.354;10.064;2023-01-15T11:30:31;6.80;99.90
1702;DHT22;848;48.354;10.064;2023-01-15T11:32:59;6.80;99.90
1702;DHT22;848;48.354;10.064;2023-01-15T11:35:29;6.80;99.90
1702;DHT22;848;48.354;10.064;2023-01-15T11:38:12;6.80;99.90
1702;DHT22;848;48.354;10.064;2023-01-15T11:40:51;6.80;99.90
1702;DHT22;848;48.354;10.064;2023-01-15T11:43:20;6.60;99.90
1702;DHT22;848;48.354;10.064;2023-01-15T11:46:04;6.50;99.90
1702;DHT22;848;48.354;10.064;2023-01-15T11:48:49;6.60;99.90
1702;DHT22;848;48.354;10.064;2023-01-15T11:51:38;6.50;99.90
1702;DHT22;848;48.354;10.064;2023-01-15T11:54:11;6.50;99.90
1702;DHT22;848;48.354;10.064;2023-01-15T11:56:41;6.50;99.90
1702;DHT22;848;48.354;10.064;2023-01-15T11:59:10;6.20;99.90
1702;DHT22;848;48.354;10.064;2023-01-15T12:01:44;6.20;99.90
1702;DHT22;848;48.354;10.064;2023-01-15T12:04:25;6.30;99.90
1702;DHT22;848;48.354;10.064;2023-01-15T12:06:52;6.20;99.90
1702;DHT22;848;48.354;10.064;2023-01-15T12:09:30;6.30;99.90
1702;DHT22;848;48.354;10.064;2023-01-15T12:12:07;6.30;99.90
1702;DHT22;848;48.354;10.064;2023-01-15T12:14:58;6.10;99.90
1702;DHT22;848;48.354;10.064;2023-01-15T12:17:51;6.10;99.90
1702;DHT22;848;48.354;10.064;2023-01-15T12:20:24;6.00;99.90
1702;DHT22;848;48.354;10.064;2023-01-15T12:23:03;6.00;99.90
1702;DHT22;848;48.354;10.064;2023-01-15T12:25:43;6.10;99.90
1702;DHT22;848;48.354;10.064;2023-01-15T12:28:14;6.20;99.90
1702;DHT22;848;48.354;10.064;2023-01-15T12:30:57;6.00;99.90
1702;DHT22;848;48.354;10.064;2023-01-15T12:33:40;5.90;99.90
1702;DHT22;848;48.354;10.064;2023-01-15T12:36:11;5.90;99.90
1702;DHT22;848;48.354;10.064;2023-01-15T12:38:45;5.80;99.90
1702;DHT22;848;48.354;10.064;2023-01-15T12:41:17;5.90;99.90
1702;DHT22;848;48.354;10.064;2023-01-15T12:43:50;6.00;99.90
1702;DHT22;848;48.354;10.064;2023-01-15T12:46:39;6.00;99.90
1702;DHT22;848;48.354;10.064;2023-01-15T12:49:18;6.00;99.90
1702;DHT22;848;48.354;10.064;2023-01-15T12:51:50;6.00;99.90
1702;DHT22;848;48.354;10.064;2023-01-15T12:54:21;6.00;99.90
1702;DHT22;848;48.354;10.064;2023-01-15T12:56:56;6.00;99.90
1702;DHT22;848;48.354;10.064;2023-01-15T12:59:28;5.90;99.90
1702;DHT22;848;48.354;10.064;2023-01-15T13:02:03;5.90;99.90
1702;DHT22;848;48.354;10.064;2023-01-15T13:04:43;6.00;99.90
1702;DHT22;848;48.354;10.064;2023-01-15T13:07:18;5.80;99.90
1702;DHT22;848;48.354;10.064;2023-01-15T13:09:51;5.80;99.90
1702;DHT22;848;48.354;10.064;2023-01-15T13:12:19;5.90;99.90
1702;DHT22;848;48.354;10.064;2023-01-15T13:14:46;5.90;99.90
1702;DHT22;848;48.354;10.064;2023-01-15T13:17:21;5.90;99.90
1702;DHT22;848;48.354;10.064;2023-01-15T13:20:02;6.00;99.90
1702;DHT22;848;48.354;10.064;2023-01-15T13:22:32;5.70;99.90
1702;DHT22;848;48.354;10.064;2023-01-15T13:25:28;5.60;99.90
1702;DHT22;848;48.354;10.064;2023-01-15T13:28:09;5.50;99.90
1702;DHT22;848;48.354;10.064;2023-01-15T13:30:50;5.70;99.90
1702;DHT22;848;48.354;10.064;2023-01-15T13:33:25;5.30;99.90
1702;DHT22;848;48.354;10.064;2023-01-15T13:35:55;5.20;99.90
1702;DHT22;848;48.354;10.064;2023-01-15T13:38:27;5.30;99.90
1702;DHT22;848;48.354;10.064;2023-01-15T13:40:56;5.30;99.90
1702;DHT22;848;48.354;10.064;2023-01-15T13:43:34;5.40;99.90
1702;DHT22;848;48.354;10.064;2023-01-15T13:46:05;5.60;99.90
1702;DHT22;848;48.354;10.064;2023-01-15T13:48:36;5.40;99.90
1702;DHT22;848;48.354;10.064;2023-01-15T13:51:07;5.40;99.90
1702;DHT22;848;48.354;10.064;2023-01-15T13:53:46;5.60;99.90
1702;DHT22;848;48.354;10.064;2023-01-15T13:56:25;5.50;99.90
1702;DHT22;848;48.354;10.064;2023-01-15T13:58:55;5.50;99.90
1702;DHT22;848;48.354;10.064;2023-01-15T14:01:25;5.50;99.90
1702;DHT22;848;48.354;10.064;2023-01-15T14:03:58;5.30;99.90
1702;DHT22;848;48.354;10.064;2023-01-15T14:06:39;5.20;99.90
1702;DHT22;848;48.354;10.064;2023-01-15T14:09:09;5.40;99.90
1702;DHT22;848;48.354;10.064;2023-01-15T14:11:37;5.30;99.90
1702;DHT22;848;48.354;10.064;2023-01-15T14:17:53;5.40;99.90
1702;DHT22;848;48.354;10.064;2023-01-15T14:20:53;5.40;99.90
1702;DHT22;848;48.354;10.064;2023-01-15T14:23:38;5.40;99.90
1702;DHT22;848;48.354;10.064;2023-01-15T14:26:21;5.40;99.90
1702;DHT22;848;48.354;10.064;2023-01-15T14:29:06;5.50;99.90
1702;DHT22;848;48.354;10.064;2023-01-15T14:31:49;5.50;99.90
1702;DHT22;848;48.354;10.064;2023-01-15T14:34:24;5.50;99.90
1702;DHT22;848;48.354;10.064;2023-01-15T14:36:55;5.40;99.90
1702;DHT22;848;48.354;10.064;2023-01-15T14:39:28;5.40;99.90
1702;DHT22;848;48.354;10.064;2023-01-15T14:42:05;5.50;99.90
1702;DHT22;848;48.354;10.064;2023-01-15T14:44:56;5.30;99.90
1702;DHT22;848;48.354;10.064;2023-01-15T14:47:30;5.40;99.90
1702;DHT22;848;48.354;10.064;2023-01-15T14:52:45;5.40;99.90
1702;DHT22;848;48.354;10.064;2023-01-15T14:55:13;5.40;99.90
1702;DHT22;848;48.354;10.064;2023-01-15T14:57:41;5.40;99.90
1702;DHT22;848;48.354;10.064;2023-01-15T15:00:15;5.50;99.90
1702;DHT22;848;48.354;10.064;2023-01-15T15:02:47;5.60;99.90
1702;DHT22;848;48.354;10.064;2023-01-15T15:05:17;5.60;99.90
1702;DHT22;848;48.354;10.064;2023-01-15T15:07:46;5.50;99.90
1702;DHT22;848;48.354;10.064;2023-01-15T15:10:21;5.50;99.90
1702;DHT22;848;48.354;10.064;2023-01-15T15:12:56;5.40;99.90
1702;DHT22;848;48.354;10.064;2023-01-15T15:15:34;5.40;99.90
1702;DHT22;848;48.354;10.064;2023-01-15T15:18:12;5.20;99.90
1702;DHT22;848;48.354;10.064;2023-01-15T15:20:49;5.10;99.90
1702;DHT22;848;48.354;10.064;2023-01-15T15:23:22;5.20;99.90
1702;DHT22;848;48.354;10.064;2023-01-15T15:25:54;5.20;99.90
1702;DHT22;848;48.354;10.064;2023-01-15T15:28:23;5.20;99.90
1702;DHT22;848;48.354;10.064;2023-01-15T15:30:50;5.20;99.90
1702;DHT22;848;48.354;10.064;2023-01-15T15:33:20;5.10;99.90
1702;DHT22;848;48.354;10.064;2023-01-15T15:35:50;5.20;99.90
1702;DHT22;848;48.354;10.064;2023-01-15T15:38:19;4.90;99.90
1702;DHT22;848;48.354;10.064;2023-01-15T15:40:49;4.70;99.90
1702;DHT22;848;48.354;10.064;2023-01-15T15:43:19;4.80;99.90
1702;DHT22;848;48.354;10.064;2023-01-15T15:46:25;4.80;99.90
1702;DHT22;848;48.354;10.064;2023-01-15T15:49:11;4.80;99.90
1702;DHT22;848;48.354;10.064;2023-01-15T15:51:39;5.00;99.90
1702;DHT22;848;48.354;10.064;2023-01-15T15:54:12;4.80;99.90
1702;DHT22;848;48.354;10.064;2023-01-15T15:56:45;4.70;99.90
1702;DHT22;848;48.354;10.064;2023-01-15T15:59:22;4.70;99.90
1702;DHT22;848;48.354;10.064;2023-01-15T16:01:52;4.60;99.90
1702;DHT22;848;48.354;10.064;2023-01-15T16:04:21;4.70;99.90
1702;DHT22;848;48.354;10.064;2023-01-15T16:06:49;4.70;99.90
1702;DHT22;848;48.354;10.064;2023-01-15T16:09:20;4.50;99.90
1702;DHT22;848;48.354;10.064;2023-01-15T16:11:48;4.60;99.90
1702;DHT22;848;48.354;10.064;2023-01-15T16:14:17;4.60;99.90
1702;DHT22;848;48.354;10.064;2023-01-15T16:16:45;4.70;99.90
1702;DHT22;848;48.354;10.064;2023-01-15T16:19:17;4.70;99.90
1702;DHT22;848;48.354;10.064;2023-01-15T16:21:47;4.80;99.90
1702;DHT22;848;48.354;10.064;2023-01-15T16:24:26;4.80;99.90
1702;DHT22;848;48.354;10.064;2023-01-15T16:26:59;4.90;99.90
1702;DHT22;848;48.354;10.064;2023-01-15T16:29:29;4.90;99.90
1702;DHT22;848;48.354;10.064;2023-01-15T16:31:57;4.90;99.90
1702;DHT22;848;48.354;10.064;2023-01-15T16:34:27;4.80;99.90
1702;DHT22;848;48.354;10.064;2023-01-15T16:36:57;4.90;99.90
1702;DHT22;848;48.354;10.064;2023-01-15T16:39:26;4.90;99.90
1702;DHT22;848;48.354;10.064;2023-01-15T16:41:55;4.80;99.90
1702;DHT22;848;48.354;10.064;2023-01-15T16:44:26;4.90;99.90
1702;DHT22;848;48.354;10.064;2023-01-15T16:46:58;4.90;99.90
1702;DHT22;848;48.354;10.064;2023-01-15T16:49:28;4.90;99.90
1702;DHT22;848;48.354;10.064;2023-01-15T16:51:58;4.90;99.90
1702;DHT22;848;48.354;10.064;2023-01-15T16:54:43;4.90;99.90
1702;DHT22;848;48.354;10.064;2023-01-15T16:57:26;4.90;99.90